Time;durP1;ratioP1;P1;durP2;ratioP2;P2;SDS_P1;SDS_P2;PMS_P1;PMS_P2;Temp;Humidity;BMP_temperature;BMP_pressure;BME280_temperature;BME280_humidity;BME280_pressure;Samples;Min_cycle;Max_cycle;Signal;HPM_P1;HPM_P2
2021/10/02 00:34:22;;;;;;;17.50;7.68;;;29.20;90.50;;;;;;5107294;28;20020;-50
2021/10/02 00:44:50;;;;;;;17.88;6.40;;;29.20;90.50;;;;;;5106752;28;20358;-47
2021/10/02 00:47:19;;;;;;;19.10;6.50;;;29.20;90.60;;;;;;5106957;28;20031;-44
2021/10/02 00:49:47;;;;;;;14.85;5.95;;;29.20;90.60;;;;;;5106675;28;20028;-50
2021/10/02 00:52:18;;;;;;;16.30;5.97;;;29.20;90.60;;;;;;5106611;28;20019;-52
2021/10/02 00:54:46;;;;;;;10.30;6.00;;;29.20;90.60;;;;;;5106773;28;20016;-50
2021/10/02 00:57:13;;;;;;;13.65;6.78;;;29.20;90.60;;;;;;5105676;28;20089;-46
2021/10/02 00:59:41;;;;;;;11.10;6.75;;;29.20;90.60;;;;;;5106756;28;20134;-51
2021/10/02 01:02:18;;;;;;;19.08;7.72;;;29.20;90.60;;;;;;5106601;28;20030;-56
2021/10/02 01:04:54;;;;;;;14.68;8.02;;;29.10;90.60;;;;;;5106413;28;20328;-54
2021/10/02 01:07:43;;;;;;;16.85;8.50;;;29.10;90.60;;;;;;5106450;28;20273;-54
2021/10/02 01:10:44;;;;;;;18.35;8.45;;;29.10;90.60;;;;;;5106317;28;20039;-53
2021/10/02 01:14:00;;;;;;;16.00;8.60;;;29.10;90.60;;;;;;5106416;28;20032;-55
2021/10/02 01:16:50;;;;;;;11.80;7.60;;;29.10;90.60;;;;;;5104473;28;20024;-55
2021/10/02 01:19:36;;;;;;;13.23;8.07;;;29.00;90.60;;;;;;5106095;28;20032;-52
2021/10/02 01:22:40;;;;;;;11.15;7.38;;;29.00;90.70;;;;;;5106579;28;20020;-53
2021/10/02 01:25:27;;;;;;;11.77;7.72;;;29.00;90.60;;;;;;5104954;28;20050;-58
2021/10/02 01:28:21;;;;;;;12.77;7.55;;;29.00;90.60;;;;;;5106063;28;20074;-53
2021/10/02 01:36:46;;;;;;;15.65;8.90;;;29.00;90.50;;;;;;5105996;28;20012;-53
2021/10/02 01:47:51;;;;;;;15.05;6.53;;;28.90;90.40;;;;;;5105658;28;20027;-56
2021/10/02 01:50:22;;;;;;;14.65;6.53;;;28.90;90.40;;;;;;5105738;28;20065;-54
2021/10/02 01:52:50;;;;;;;10.82;5.78;;;28.90;90.40;;;;;;5105670;28;20055;-53
2021/10/02 01:55:18;;;;;;;14.93;5.57;;;28.90;90.30;;;;;;5105491;28;20016;-51
2021/10/02 01:57:53;;;;;;;11.15;4.78;;;28.90;90.30;;;;;;5105490;28;20035;-53
2021/10/02 02:00:20;;;;;;;9.48;4.53;;;28.90;90.20;;;;;;5105560;27;20236;-51
2021/10/02 02:02:51;;;;;;;11.32;4.35;;;28.80;90.10;;;;;;5105354;28;20045;-47
2021/10/02 02:05:20;;;;;;;12.27;4.63;;;28.80;90.10;;;;;;5104363;28;20031;-50
2021/10/02 02:07:52;;;;;;;10.27;4.20;;;28.80;90.10;;;;;;5105280;28;20293;-49
2021/10/02 02:10:23;;;;;;;8.18;3.90;;;28.80;90.00;;;;;;5105330;28;20024;-54
2021/10/02 02:12:52;;;;;;;7.03;3.90;;;28.80;89.70;;;;;;5105266;28;20091;-48
2021/10/02 02:15:20;;;;;;;15.32;3.97;;;28.80;89.60;;;;;;5105083;28;20020;-48
2021/10/02 02:17:55;;;;;;;13.85;4.13;;;28.70;89.40;;;;;;5105105;28;20302;-53
2021/10/02 02:20:33;;;;;;;7.10;3.60;;;28.70;89.30;;;;;;5105096;28;20101;-56
2021/10/02 02:23:01;;;;;;;8.95;3.60;;;28.70;88.90;;;;;;5105088;28;20030;-51
2021/10/02 02:25:28;;;;;;;10.55;3.83;;;28.70;88.80;;;;;;5105045;28;20012;-54
2021/10/02 02:27:56;;;;;;;10.02;3.53;;;28.70;88.80;;;;;;5104946;28;20028;-56
2021/10/02 02:30:23;;;;;;;10.32;3.45;;;28.70;88.60;;;;;;5104916;28;20040;-51
2021/10/02 02:32:53;;;;;;;7.32;3.80;;;28.70;88.50;;;;;;5104800;28;20028;-53
2021/10/02 02:35:24;;;;;;;6.18;3.55;;;28.60;88.40;;;;;;5104372;28;20011;-52
2021/10/02 02:37:51;;;;;;;9.85;3.78;;;28.60;88.30;;;;;;5104814;28;20028;-53
2021/10/02 02:40:18;;;;;;;7.57;3.50;;;28.60;88.10;;;;;;5104725;28;20023;-53
2021/10/02 02:42:45;;;;;;;7.15;3.70;;;28.60;88.10;;;;;;5104605;28;20308;-58
2021/10/02 02:45:13;;;;;;;8.40;4.10;;;28.60;88.00;;;;;;5104642;28;20020;-53
2021/10/02 02:48:04;;;;;;;7.47;4.28;;;28.60;88.00;;;;;;5104421;28;20197;-54
2021/10/02 02:50:49;;;;;;;8.45;4.88;;;28.50;87.90;;;;;;5104369;28;20095;-47
2021/10/02 02:53:34;;;;;;;7.43;4.85;;;28.50;87.90;;;;;;5104439;28;20028;-55
2021/10/02 02:56:08;;;;;;;8.65;4.78;;;28.50;88.00;;;;;;5104431;28;20258;-53
2021/10/02 02:58:37;;;;;;;8.75;5.35;;;28.50;88.00;;;;;;5104570;28;20091;-47
2021/10/02 03:01:04;;;;;;;7.88;4.60;;;28.50;88.00;;;;;;5104343;28;20266;-44
2021/10/02 03:03:34;;;;;;;8.25;4.72;;;28.50;88.00;;;;;;5104592;28;20036;-49
2021/10/02 03:06:08;;;;;;;9.23;4.28;;;28.50;87.90;;;;;;5104312;28;20091;-50
2021/10/02 03:08:44;;;;;;;6.90;4.00;;;28.50;87.90;;;;;;5104564;28;20039;-51
2021/10/02 03:11:12;;;;;;;8.63;4.07;;;28.40;87.80;;;;;;5104070;28;20371;-48
2021/10/02 03:13:41;;;;;;;11.63;3.42;;;28.40;87.80;;;;;;5104516;28;20397;-52
2021/10/02 03:16:14;;;;;;;6.63;3.25;;;28.40;87.60;;;;;;5103174;28;20333;-49
2021/10/02 03:18:44;;;;;;;7.60;3.15;;;28.40;87.50;;;;;;5104443;28;20063;-52
2021/10/02 03:21:13;;;;;;;7.35;3.30;;;28.40;87.50;;;;;;5104103;28;20024;-49
2021/10/02 03:23:40;;;;;;;6.07;2.90;;;28.40;87.50;;;;;;5104216;28;20042;-43
2021/10/02 03:26:08;;;;;;;7.80;3.05;;;28.40;87.60;;;;;;5104077;28;20107;-47
2021/10/02 03:28:36;;;;;;;7.38;2.90;;;28.40;87.40;;;;;;5104256;28;20028;-45
2021/10/02 03:31:03;;;;;;;10.77;2.95;;;28.40;87.50;;;;;;5103763;28;20028;-45
2021/10/02 03:33:31;;;;;;;7.95;3.20;;;28.40;87.40;;;;;;5103953;28;20020;-42
2021/10/02 03:35:58;;;;;;;4.28;2.67;;;28.40;87.30;;;;;;5104005;28;20092;-51
2021/10/02 03:38:25;;;;;;;6.13;2.85;;;28.40;87.20;;;;;;5104033;28;20024;-50
2021/10/02 03:40:57;;;;;;;5.47;2.75;;;28.30;87.10;;;;;;5104171;28;20367;-52
2021/10/02 03:43:26;;;;;;;6.10;2.95;;;28.30;87.10;;;;;;5104058;28;20035;-48
2021/10/02 03:45:52;;;;;;;5.68;3.40;;;28.30;87.10;;;;;;5103705;28;20020;-49
2021/10/02 03:48:19;;;;;;;10.63;4.05;;;28.30;87.10;;;;;;5105804;28;20034;-47
2021/10/02 03:50:45;;;;;;;12.02;5.50;;;28.30;87.10;;;;;;5107901;28;20020;-52
2021/10/02 03:53:12;;;;;;;16.67;8.55;;;28.30;87.30;;;;;;5108056;28;20069;-53
2021/10/02 03:55:39;;;;;;;18.98;12.93;;;28.30;87.30;;;;;;5108022;28;20023;-48
2021/10/02 03:58:05;;;;;;;18.27;10.73;;;28.30;87.40;;;;;;5107963;28;20020;-51
2021/10/02 04:00:32;;;;;;;14.85;9.18;;;28.20;87.40;;;;;;5107644;28;20055;-51
2021/10/02 04:02:58;;;;;;;12.65;7.68;;;28.20;87.30;;;;;;5107932;28;20027;-51
2021/10/02 04:05:25;;;;;;;13.15;7.10;;;28.20;87.20;;;;;;5107865;28;20012;-51
2021/10/02 04:07:51;;;;;;;11.38;7.90;;;28.20;87.10;;;;;;5107647;28;20065;-54
2021/10/02 04:10:18;;;;;;;13.45;7.85;;;28.20;87.10;;;;;;5107639;28;20036;-56
2021/10/02 04:12:45;;;;;;;10.45;5.97;;;28.20;86.90;;;;;;5107559;28;20142;-56
2021/10/02 04:15:11;;;;;;;8.43;5.43;;;28.20;86.90;;;;;;5107441;28;20042;-54
2021/10/02 04:17:38;;;;;;;8.70;3.83;;;28.20;86.70;;;;;;5107479;28;20027;-59
2021/10/02 04:20:06;;;;;;;7.47;4.28;;;28.20;86.70;;;;;;5107531;28;20019;-52
2021/10/02 04:22:33;;;;;;;7.35;3.70;;;28.10;86.60;;;;;;5107324;28;20351;-51
2021/10/02 04:25:00;;;;;;;5.57;3.33;;;28.10;87.00;;;;;;5107540;28;20027;-53
2021/10/02 04:27:26;;;;;;;9.05;3.20;;;28.10;86.50;;;;;;5107316;28;20304;-52
2021/10/02 04:29:53;;;;;;;7.15;2.78;;;28.10;86.40;;;;;;5107333;28;20024;-53
2021/10/02 04:32:19;;;;;;;7.47;3.13;;;28.10;86.40;;;;;;5107126;28;20185;-53
2021/10/02 04:34:46;;;;;;;6.43;3.28;;;28.10;86.40;;;;;;5107233;28;20309;-54
2021/10/02 04:37:12;;;;;;;7.72;3.47;;;28.10;86.50;;;;;;5107219;28;20075;-52
2021/10/02 04:39:39;;;;;;;9.85;5.80;;;28.10;86.80;;;;;;5107527;28;20255;-52
2021/10/02 04:42:06;;;;;;;14.50;6.70;;;28.00;86.90;;;;;;5107109;28;20024;-56
2021/10/02 04:44:33;;;;;;;14.55;7.18;;;28.00;87.00;;;;;;5107512;28;20030;-52
2021/10/02 04:47:00;;;;;;;18.05;8.02;;;28.00;87.30;;;;;;5106828;28;20055;-54
2021/10/02 04:49:26;;;;;;;13.38;7.47;;;28.00;87.50;;;;;;5107313;28;20020;-52
2021/10/02 04:51:53;;;;;;;9.43;5.72;;;28.00;87.70;;;;;;5106860;28;20379;-53
2021/10/02 04:54:19;;;;;;;11.82;5.43;;;28.00;87.70;;;;;;5107105;28;20069;-54
2021/10/02 04:56:46;;;;;;;12.35;7.13;;;28.00;87.80;;;;;;5106788;28;20050;-55
2021/10/02 04:59:14;;;;;;;12.48;8.00;;;28.00;88.00;;;;;;5106929;28;20020;-52
2021/10/02 05:01:40;;;;;;;11.88;8.23;;;28.00;88.20;;;;;;5106870;28;20044;-52
2021/10/02 05:04:07;;;;;;;17.00;9.77;;;27.90;88.20;;;;;;5107060;28;20032;-54
2021/10/02 05:06:34;;;;;;;17.60;8.85;;;28.00;88.90;;;;;;5106634;28;20024;-58
2021/10/02 05:09:00;;;;;;;13.88;7.88;;;27.90;88.30;;;;;;5106753;28;20029;-56
2021/10/02 05:11:27;;;;;;;15.88;7.63;;;28.00;88.30;;;;;;5106460;28;20024;-53
2021/10/02 05:13:55;;;;;;;15.15;9.32;;;27.90;88.30;;;;;;5106943;28;20024;-55
2021/10/02 05:16:22;;;;;;;18.88;11.48;;;27.90;88.30;;;;;;5106323;28;20024;-53
2021/10/02 05:18:48;;;;;;;15.52;9.63;;;27.90;88.30;;;;;;5106697;28;20027;-55
2021/10/02 05:21:15;;;;;;;15.77;7.97;;;27.90;88.30;;;;;;5106514;28;20324;-54
2021/10/02 05:23:41;;;;;;;15.65;7.00;;;27.90;88.40;;;;;;5106446;28;20032;-54
2021/10/02 05:26:09;;;;;;;11.02;6.03;;;27.90;88.50;;;;;;5106268;28;20130;-53
2021/10/02 05:28:36;;;;;;;8.93;5.80;;;27.90;88.60;;;;;;5106461;28;20030;-54
2021/10/02 05:31:02;;;;;;;14.05;6.00;;;27.90;88.50;;;;;;5105971;28;20055;-53
2021/10/02 05:33:29;;;;;;;14.05;5.97;;;27.90;88.40;;;;;;5106358;28;20035;-47
2021/10/02 05:35:55;;;;;;;16.02;8.38;;;27.90;88.50;;;;;;5106222;28;20031;-47
2021/10/02 05:38:22;;;;;;;14.95;9.48;;;27.90;88.60;;;;;;5106081;28;20089;-51
2021/10/02 05:40:50;;;;;;;13.50;8.25;;;27.90;88.60;;;;;;5106031;28;20100;-49
2021/10/02 05:43:17;;;;;;;15.48;7.45;;;27.90;88.60;;;;;;5106077;28;20024;-51
2021/10/02 05:45:43;;;;;;;11.75;6.60;;;27.90;88.60;;;;;;5105710;28;20024;-52
2021/10/02 05:48:10;;;;;;;9.00;5.60;;;27.90;88.70;;;;;;5105976;28;20023;-43
2021/10/02 05:50:38;;;;;;;8.85;5.25;;;27.90;88.70;;;;;;5105916;28;20027;-49
2021/10/02 05:53:06;;;;;;;10.40;5.30;;;27.90;88.50;;;;;;5105683;28;20020;-50
2021/10/02 05:55:33;;;;;;;9.55;5.10;;;27.90;88.40;;;;;;5105689;28;20082;-49
2021/10/02 05:58:00;;;;;;;7.85;4.53;;;27.90;88.50;;;;;;5105875;28;20047;-50
2021/10/02 06:00:26;;;;;;;6.95;4.72;;;27.90;88.50;;;;;;5105271;28;20055;-53
2021/10/02 06:02:56;;;;;;;10.73;4.97;;;27.90;88.50;;;;;;5105473;28;20332;-51
2021/10/02 06:05:26;;;;;;;10.40;5.05;;;27.80;88.40;;;;;;5105461;28;20224;-51
2021/10/02 06:07:54;;;;;;;11.60;4.85;;;27.80;88.30;;;;;;5105326;28;20035;-46
2021/10/02 06:10:21;;;;;;;6.72;4.53;;;27.90;88.50;;;;;;5104723;28;20036;-47
2021/10/02 06:12:52;;;;;;;10.80;4.90;;;27.90;88.40;;;;;;5105285;28;20239;-47
2021/10/02 06:15:19;;;;;;;11.23;5.97;;;27.90;88.40;;;;;;5105147;28;20024;-50
2021/10/02 06:17:45;;;;;;;11.73;6.18;;;27.90;88.30;;;;;;5105262;28;20027;-51
2021/10/02 06:20:12;;;;;;;8.60;5.97;;;27.90;88.40;;;;;;5105179;28;20023;-46
2021/10/02 06:22:38;;;;;;;9.20;6.20;;;27.80;88.30;;;;;;5105029;28;20024;-43
2021/10/02 06:25:05;;;;;;;11.57;6.10;;;27.80;88.30;;;;;;5105163;28;20027;-41
2021/10/02 06:27:32;;;;;;;11.35;5.63;;;27.80;88.20;;;;;;5105069;28;20015;-42
2021/10/02 06:29:59;;;;;;;9.90;5.22;;;27.90;88.30;;;;;;5104882;28;20125;-43
2021/10/02 06:32:26;;;;;;;10.40;4.70;;;27.80;88.30;;;;;;5104850;28;20016;-47
2021/10/02 06:34:53;;;;;;;9.20;4.43;;;27.80;88.30;;;;;;5104912;28;20324;-43
2021/10/02 06:37:20;;;;;;;7.15;4.38;;;27.80;88.40;;;;;;5104653;28;20020;-48
2021/10/02 06:39:47;;;;;;;12.48;4.82;;;27.80;88.40;;;;;;5105120;28;20020;-47
2021/10/02 06:42:14;;;;;;;9.25;4.20;;;27.80;88.40;;;;;;5104759;28;20023;-46
2021/10/02 06:44:41;;;;;;;8.27;4.28;;;27.80;88.40;;;;;;5105082;28;20028;-45
2021/10/02 06:47:08;;;;;;;10.05;4.20;;;27.80;88.60;;;;;;5104704;28;20028;-43
2021/10/02 06:49:35;;;;;;;10.07;4.03;;;27.80;88.60;;;;;;5104528;28;20065;-43
2021/10/02 06:52:01;;;;;;;6.38;4.15;;;27.80;88.70;;;;;;5104451;28;20027;-52
2021/10/02 06:54:28;;;;;;;6.78;3.80;;;27.80;88.60;;;;;;5105058;28;20048;-45
2021/10/02 06:56:55;;;;;;;6.85;3.60;;;27.80;88.70;;;;;;5104591;28;20016;-44
2021/10/02 06:59:25;;;;;;;8.13;3.78;;;27.70;88.70;;;;;;5104671;28;20028;-47
2021/10/02 07:01:51;;;;;;;7.35;3.95;;;27.70;88.80;;;;;;5104496;28;20312;-50
2021/10/02 07:04:18;;;;;;;6.95;3.67;;;27.80;89.00;;;;;;5104827;28;20039;-46
2021/10/02 07:06:44;;;;;;;6.90;4.03;;;27.70;89.00;;;;;;5104260;28;20078;-43
2021/10/02 07:09:11;;;;;;;6.22;3.70;;;27.70;89.20;;;;;;5104898;28;20361;-40
2021/10/02 07:11:37;;;;;;;8.48;4.32;;;27.70;89.30;;;;;;5104288;28;20020;-42
2021/10/02 07:14:04;;;;;;;8.13;4.13;;;27.70;89.80;;;;;;5104649;28;20020;-47
2021/10/02 07:16:31;;;;;;;5.85;3.83;;;27.70;89.30;;;;;;5104292;28;20213;-49
2021/10/02 07:18:57;;;;;;;8.30;3.70;;;27.70;89.30;;;;;;5104597;28;20062;-45
2021/10/02 07:21:24;;;;;;;10.50;3.90;;;27.70;89.40;;;;;;5104138;28;20047;-47
2021/10/02 07:23:50;;;;;;;6.28;3.40;;;27.70;89.50;;;;;;5103656;28;20028;-46
2021/10/02 07:26:17;;;;;;;10.02;3.60;;;27.70;89.40;;;;;;5104151;28;20012;-44
2021/10/02 07:28:44;;;;;;;8.70;4.10;;;27.70;89.40;;;;;;5104413;28;20038;-42
2021/10/02 07:31:10;;;;;;;8.00;3.90;;;27.70;89.40;;;;;;5103830;28;20031;-44
2021/10/02 07:33:37;;;;;;;7.90;3.53;;;27.70;89.40;;;;;;5104339;28;20084;-44
2021/10/02 07:36:03;;;;;;;6.00;3.40;;;27.70;89.40;;;;;;5104074;28;20020;-49
2021/10/02 07:38:30;;;;;;;8.05;3.95;;;27.70;89.50;;;;;;5104081;28;20312;-45
2021/10/02 07:40:58;;;;;;;7.43;3.67;;;27.70;89.60;;;;;;5104013;28;20020;-45
2021/10/02 07:43:26;;;;;;;8.73;3.22;;;27.70;89.60;;;;;;5104195;28;20046;-43
2021/10/02 07:45:53;;;;;;;8.57;3.10;;;27.70;89.60;;;;;;5103806;28;20044;-43
2021/10/02 07:48:24;;;;;;;8.05;3.45;;;27.70;89.60;;;;;;5104121;28;20024;-43
2021/10/02 07:50:54;;;;;;;6.75;3.20;;;27.70;89.60;;;;;;5104124;28;20359;-45
2021/10/02 07:53:23;;;;;;;8.25;3.65;;;27.70;89.60;;;;;;5104086;28;20040;-43
2021/10/02 07:55:51;;;;;;;3.95;3.17;;;27.70;89.60;;;;;;5103875;28;20016;-46
2021/10/02 07:58:22;;;;;;;10.10;3.30;;;27.70;89.70;;;;;;5103928;28;20031;-45
2021/10/02 08:00:54;;;;;;;6.90;3.45;;;27.60;89.60;;;;;;5103674;28;20292;-49
2021/10/02 08:03:20;;;;;;;7.95;2.92;;;27.70;89.60;;;;;;5103967;28;20028;-50
2021/10/02 08:05:48;;;;;;;8.63;3.25;;;27.60;89.60;;;;;;5103588;28;20359;-51
2021/10/02 08:08:20;;;;;;;7.05;3.25;;;27.70;89.70;;;;;;5103990;28;20234;-47
2021/10/02 08:10:48;;;;;;;12.48;3.05;;;27.60;89.70;;;;;;5103674;28;20201;-48
2021/10/02 08:13:16;;;;;;;8.38;3.03;;;27.60;89.70;;;;;;5103748;28;20216;-50
2021/10/02 08:15:45;;;;;;;6.57;2.88;;;27.60;89.70;;;;;;5103693;28;20055;-56
2021/10/02 08:18:16;;;;;;;5.65;2.92;;;27.60;89.80;;;;;;5103774;28;20023;-50
2021/10/02 08:20:44;;;;;;;11.48;3.15;;;27.60;89.90;;;;;;5103608;28;20098;-50
2021/10/02 08:23:13;;;;;;;9.38;3.22;;;27.60;89.90;;;;;;5103726;28;20035;-49
2021/10/02 08:25:48;;;;;;;8.55;3.13;;;27.60;89.90;;;;;;5103472;28;20020;-48
2021/10/02 08:28:17;;;;;;;5.28;3.20;;;27.60;90.00;;;;;;5103698;28;20095;-51
2021/10/02 08:30:46;;;;;;;6.70;3.30;;;27.60;90.00;;;;;;5103433;28;20076;-52
2021/10/02 08:33:13;;;;;;;6.25;3.00;;;27.60;90.00;;;;;;5103535;28;20028;-45
2021/10/02 08:35:42;;;;;;;11.95;3.33;;;27.60;90.00;;;;;;5107128;28;20027;-48
2021/10/02 08:38:09;;;;;;;10.60;3.60;;;27.50;89.90;;;;;;5106200;28;20024;-45
2021/10/02 08:40:36;;;;;;;7.40;3.25;;;27.60;89.90;;;;;;5107056;28;20034;-46
2021/10/02 08:43:04;;;;;;;9.98;3.30;;;27.60;89.70;;;;;;5107197;28;20312;-45
2021/10/02 08:45:32;;;;;;;8.65;3.35;;;27.60;89.70;;;;;;5107076;28;20027;-47
2021/10/02 08:47:59;;;;;;;10.65;3.00;;;27.50;89.60;;;;;;5107014;28;20039;-48
2021/10/02 08:50:27;;;;;;;8.57;3.08;;;27.50;89.50;;;;;;5106920;28;20027;-44
2021/10/02 08:52:55;;;;;;;8.60;2.55;;;27.50;89.40;;;;;;5106909;28;20032;-46
2021/10/02 08:55:23;;;;;;;9.35;2.92;;;27.50;89.20;;;;;;5106740;28;20022;-49
2021/10/02 08:57:51;;;;;;;6.03;2.65;;;27.50;89.00;;;;;;5106913;28;20048;-46
2021/10/02 09:00:23;;;;;;;5.20;2.65;;;27.50;89.00;;;;;;5106660;28;20048;-51
2021/10/02 09:02:51;;;;;;;11.63;3.10;;;27.50;88.80;;;;;;5106947;28;20097;-47
2021/10/02 09:05:21;;;;;;;20.08;3.38;;;27.50;88.70;;;;;;5106643;28;20054;-49
2021/10/02 09:07:55;;;;;;;10.20;3.15;;;27.50;88.90;;;;;;5106777;28;20030;-46
2021/10/02 09:10:23;;;;;;;17.73;4.15;;;27.50;89.00;;;;;;5106567;28;20020;-46
2021/10/02 09:12:50;;;;;;;17.45;3.58;;;27.50;89.30;;;;;;5106533;28;20028;-46
2021/10/02 09:15:18;;;;;;;15.43;3.75;;;27.50;89.60;;;;;;5106341;28;20212;-45
2021/10/02 09:17:45;;;;;;;8.38;3.10;;;27.50;89.60;;;;;;5106414;28;20070;-48
2021/10/02 09:20:16;;;;;;;16.77;3.78;;;27.50;89.50;;;;;;5106502;28;20050;-44
2021/10/02 09:22:57;;;;;;;10.50;3.20;;;27.50;89.40;;;;;;5106213;28;20028;-42
2021/10/02 09:25:26;;;;;;;15.18;3.50;;;27.50;89.60;;;;;;5106278;28;20028;-42
2021/10/02 09:28:07;;;;;;;11.15;3.22;;;27.50;89.70;;;;;;5106376;28;20091;-50
2021/10/02 09:30:35;;;;;;;10.70;3.10;;;27.50;89.60;;;;;;5106206;28;20024;-48
2021/10/02 09:33:13;;;;;;;17.70;3.30;;;27.50;89.80;;;;;;5106076;28;20326;-51
2021/10/02 09:35:41;;;;;;;10.45;3.05;;;27.50;89.90;;;;;;5106128;28;20093;-50
2021/10/02 09:38:14;;;;;;;8.93;2.70;;;27.50;90.00;;;;;;5106101;28;20307;-51
2021/10/02 09:40:46;;;;;;;;;;;27.50;90.00;;;;;;5106318;28;20266;-51
2021/10/02 09:43:12;;;;;;;10.95;2.88;;;27.50;89.90;;;;;;5106153;28;19975;-53
2021/10/02 09:45:40;;;;;;;11.93;3.03;;;27.40;89.80;;;;;;5104772;28;20038;-53
2021/10/02 09:48:09;;;;;;;11.82;3.10;;;27.50;89.90;;;;;;5105967;28;20020;-54
2021/10/02 09:50:39;;;;;;;18.60;5.45;;;27.40;90.10;;;;;;5105722;28;20028;-52
2021/10/02 09:53:12;;;;;;;26.27;5.65;;;27.40;90.70;;;;;;5105658;28;20024;-52
2021/10/02 09:55:40;;;;;;;15.70;5.28;;;27.40;91.20;;;;;;5105739;28;20021;-56
2021/10/02 09:58:10;;;;;;;21.40;5.80;;;27.40;91.40;;;;;;5105822;28;20023;-53
2021/10/02 10:00:48;;;;;;;24.90;6.47;;;27.40;91.70;;;;;;5105340;28;20040;-54
2021/10/02 10:03:17;;;;;;;26.77;5.30;;;27.40;91.80;;;;;;5105432;28;20091;-51
2021/10/02 10:05:48;;;;;;;25.05;5.68;;;27.40;91.90;;;;;;5105341;28;20331;-51
2021/10/02 10:08:26;;;;;;;18.80;5.43;;;27.40;92.00;;;;;;5105586;28;20030;-55
2021/10/02 10:11:05;;;;;;;23.20;5.90;;;27.40;92.10;;;;;;5105551;28;20034;-55
2021/10/02 10:13:32;;;;;;;20.80;6.10;;;27.40;92.20;;;;;;5105601;28;20047;-53
2021/10/02 10:15:59;;;;;;;14.27;5.32;;;27.40;92.30;;;;;;5105291;28;20012;-52
2021/10/02 10:18:30;;;;;;;17.27;4.25;;;27.40;92.30;;;;;;5105328;28;20031;-54
2021/10/02 10:20:59;;;;;;;13.55;4.38;;;27.40;92.20;;;;;;5105209;28;20079;-51
2021/10/02 10:23:32;;;;;;;12.95;4.38;;;27.40;92.30;;;;;;5105386;28;20020;-52
2021/10/02 10:26:03;;;;;;;12.23;4.45;;;27.30;92.30;;;;;;5105112;28;20028;-52
2021/10/02 10:28:32;;;;;;;10.98;4.32;;;27.30;92.30;;;;;;5105217;28;20031;-53
2021/10/02 10:31:27;;;;;;;10.85;3.90;;;27.30;92.30;;;;;;5104773;28;20020;-51
2021/10/02 10:33:57;;;;;;;11.63;3.70;;;27.30;92.20;;;;;;5105301;28;20027;-51
2021/10/02 10:36:32;;;;;;;10.93;3.92;;;27.30;92.20;;;;;;5104790;28;20019;-52
2021/10/02 10:38:58;;;;;;;17.33;3.70;;;27.30;92.10;;;;;;5105225;28;20178;-52
2021/10/02 10:41:28;;;;;;;12.40;3.60;;;27.30;92.10;;;;;;5104801;28;20058;-55
2021/10/02 10:43:54;;;;;;;10.75;4.03;;;27.30;92.10;;;;;;5105237;28;20032;-52
2021/10/02 10:46:24;;;;;;;7.85;3.35;;;27.20;92.00;;;;;;5104787;28;20020;-57
2021/10/02 10:48:51;;;;;;;6.90;4.53;;;27.20;92.10;;;;;;5104419;28;20024;-52
2021/10/02 10:51:21;;;;;;;10.02;4.72;;;27.20;92.10;;;;;;5104597;28;20064;-54
2021/10/02 10:53:50;;;;;;;8.52;4.80;;;27.20;92.10;;;;;;5104900;28;20032;-55
2021/10/02 10:56:36;;;;;;;10.52;4.68;;;27.20;92.00;;;;;;5104383;28;20070;-52
2021/10/02 10:59:03;;;;;;;8.30;4.22;;;27.30;92.10;;;;;;5104930;28;20024;-52
2021/10/02 11:01:36;;;;;;;8.63;4.45;;;27.30;92.10;;;;;;5104230;28;20332;-57
2021/10/02 11:04:03;;;;;;;8.02;4.18;;;27.30;92.10;;;;;;5104824;28;20413;-55
2021/10/02 11:06:50;;;;;;;14.35;4.40;;;27.30;92.10;;;;;;5104495;28;20066;-56
2021/10/02 11:09:33;;;;;;;7.07;4.40;;;27.30;92.10;;;;;;5104725;28;20028;-54
2021/10/02 11:12:00;;;;;;;9.45;4.38;;;27.30;92.10;;;;;;5104111;28;20027;-53
2021/10/02 11:14:51;;;;;;;10.52;4.78;;;27.20;92.20;;;;;;5104705;28;20024;-56
2021/10/02 11:17:34;;;;;;;9.82;4.35;;;27.30;92.30;;;;;;5104098;28;20020;-52
2021/10/02 11:20:22;;;;;;;7.70;4.00;;;27.30;92.30;;;;;;5104176;28;20069;-52
2021/10/02 11:23:27;;;;;;;9.40;4.30;;;27.20;92.20;;;;;;5104140;28;20036;-53
2021/10/02 11:26:12;;;;;;;7.00;4.13;;;27.20;92.20;;;;;;5103217;28;20028;-53
2021/10/02 11:28:39;;;;;;;6.07;3.42;;;27.30;92.10;;;;;;5104337;28;20213;-55
2021/10/02 11:31:18;;;;;;;6.43;3.67;;;27.30;92.00;;;;;;5104167;28;20031;-54
2021/10/02 11:33:47;;;;;;;6.00;3.92;;;27.30;91.90;;;;;;5104277;28;20024;-54
2021/10/02 11:36:31;;;;;;;5.25;3.75;;;27.30;91.80;;;;;;5103842;28;20058;-52
2021/10/02 11:39:18;;;;;;;4.68;3.50;;;27.30;91.80;;;;;;5104273;28;20051;-52
2021/10/02 11:42:13;;;;;;;5.32;4.38;;;27.30;91.70;;;;;;5103994;28;20039;-54
2021/10/02 11:44:47;;;;;;;6.47;4.72;;;27.30;91.70;;;;;;5104245;28;20027;-52
2021/10/02 11:47:33;;;;;;;5.68;3.50;;;27.40;91.90;;;;;;5104236;28;20016;-53
2021/10/02 11:50:26;;;;;;;4.68;3.50;;;27.40;91.90;;;;;;5103729;28;20035;-53
2021/10/02 11:52:54;;;;;;;4.88;3.75;;;27.50;92.10;;;;;;5103416;28;20067;-51
2021/10/02 11:55:36;;;;;;;6.85;3.95;;;27.40;92.00;;;;;;5103689;28;20016;-53
2021/10/02 11:58:09;;;;;;;16.98;4.20;;;27.50;92.00;;;;;;5103973;28;20066;-47
2021/10/02 12:01:03;;;;;;;29.83;4.28;;;27.50;92.10;;;;;;5103525;28;20051;-49
2021/10/02 12:03:35;;;;;;;10.73;4.20;;;27.50;92.10;;;;;;5103945;28;20039;-48
2021/10/02 12:06:04;;;;;;;8.43;3.55;;;27.50;92.00;;;;;;5103833;28;20020;-47
2021/10/02 12:08:32;;;;;;;11.68;3.42;;;27.50;92.00;;;;;;5104266;28;20028;-50
2021/10/02 12:11:09;;;;;;;11.70;3.45;;;27.50;91.90;;;;;;5107532;28;20079;-50
2021/10/02 12:13:39;;;;;;;7.25;4.10;;;27.60;91.80;;;;;;5107951;28;20031;-49
2021/10/02 12:16:15;;;;;;;9.93;3.25;;;27.60;91.70;;;;;;5107709;28;20061;-47
2021/10/02 12:19:18;;;;;;;8.18;3.53;;;27.70;91.70;;;;;;5107825;28;20026;-46
2021/10/02 12:21:50;;;;;;;11.30;3.80;;;27.70;91.50;;;;;;5107544;28;20024;-47
2021/10/02 12:24:32;;;;;;;15.20;4.03;;;27.80;91.40;;;;;;5107934;28;20028;-50
2021/10/02 12:27:14;;;;;;;10.95;3.65;;;27.80;91.30;;;;;;5108028;28;20087;-49
2021/10/02 12:29:43;;;;;;;13.77;3.60;;;27.80;91.20;;;;;;5108085;28;20028;-50
2021/10/02 12:32:14;;;;;;;6.50;3.30;;;27.80;90.90;;;;;;5107159;28;20193;-50
2021/10/02 12:34:49;;;;;;;5.38;2.53;;;27.90;91.00;;;;;;5107223;28;20031;-48
2021/10/02 12:37:20;;;;;;;6.72;2.60;;;27.90;91.00;;;;;;5107121;28;20040;-51
2021/10/02 12:40:01;;;;;;;8.73;3.10;;;27.90;90.90;;;;;;5107194;28;20035;-51
2021/10/02 12:42:40;;;;;;;7.18;2.60;;;27.90;90.90;;;;;;5106949;28;20012;-47
2021/10/02 12:45:10;;;;;;;7.13;2.58;;;27.90;90.80;;;;;;5107073;28;20396;-52
2021/10/02 12:47:37;;;;;;;9.07;2.63;;;28.00;90.80;;;;;;5107047;28;20309;-52
2021/10/02 12:50:16;;;;;;;8.15;2.70;;;28.00;90.70;;;;;;5106810;28;20092;-46
2021/10/02 12:52:43;;;;;;;4.28;2.53;;;27.90;90.70;;;;;;5106900;28;20056;-45
2021/10/02 12:55:15;;;;;;;6.63;2.67;;;28.00;90.70;;;;;;5107024;28;20208;-48
2021/10/02 12:57:42;;;;;;;6.68;2.83;;;28.00;90.60;;;;;;5106949;28;20022;-47
2021/10/02 13:00:19;;;;;;;5.57;2.60;;;28.00;90.60;;;;;;5106699;28;20051;-47
2021/10/02 13:02:55;;;;;;;5.05;2.67;;;28.00;90.40;;;;;;5106767;28;20051;-47
2021/10/02 13:05:27;;;;;;;3.88;2.83;;;28.00;90.40;;;;;;5106861;28;20212;-48
2021/10/02 13:08:00;;;;;;;;;;;28.00;90.40;;;;;;5107004;28;20023;-46
2021/10/02 13:10:35;;;;;;;6.95;2.80;;;28.00;90.30;;;;;;5106742;28;19907;-45
2021/10/02 13:13:13;;;;;;;6.55;2.80;;;28.00;90.30;;;;;;5106407;28;20200;-42
2021/10/02 13:15:48;;;;;;;3.22;2.67;;;28.00;90.30;;;;;;5106451;28;20413;-45
2021/10/02 13:18:23;;;;;;;4.63;3.00;;;28.00;90.30;;;;;;5106287;28;20039;-52
2021/10/02 13:20:51;;;;;;;5.85;2.80;;;28.00;90.30;;;;;;5106410;28;20020;-46
2021/10/02 13:23:39;;;;;;;6.75;2.97;;;28.00;90.30;;;;;;5106367;28;20020;-50
2021/10/02 13:26:12;;;;;;;5.15;2.60;;;28.00;90.20;;;;;;5106120;28;20041;-43
2021/10/02 13:28:49;;;;;;;;;;;28.00;90.10;;;;;;5106710;28;20094;-48
2021/10/02 13:31:15;;;;;;;5.40;2.78;;;28.10;90.20;;;;;;5106087;28;19958;-47
2021/10/02 13:33:47;;;;;;;4.50;2.70;;;28.10;90.10;;;;;;5106336;28;20032;-53
2021/10/02 13:36:31;;;;;;;6.75;2.85;;;28.10;90.10;;;;;;5105913;28;20196;-49
2021/10/02 13:39:17;;;;;;;2.90;2.58;;;28.10;90.00;;;;;;5106401;28;20063;-46
2021/10/02 13:41:50;;;;;;;3.65;2.38;;;28.10;90.00;;;;;;5105769;28;20028;-43
2021/10/02 13:44:32;;;;;;;4.68;2.60;;;28.20;90.00;;;;;;5106390;28;20028;-47
2021/10/02 13:47:03;;;;;;;4.18;2.60;;;28.20;89.80;;;;;;5106010;28;20039;-53
2021/10/02 13:49:30;;;;;;;4.07;2.77;;;28.20;89.60;;;;;;5106210;28;20032;-47
2021/10/02 13:51:58;;;;;;;4.47;2.75;;;28.20;89.60;;;;;;5105546;28;20273;-48
2021/10/02 13:54:24;;;;;;;3.20;2.30;;;28.20;89.60;;;;;;5105925;28;20077;-48
2021/10/02 13:56:56;;;;;;;4.75;2.40;;;28.20;89.60;;;;;;5105564;28;20256;-44
2021/10/02 13:59:23;;;;;;;5.32;2.40;;;28.30;89.50;;;;;;5105678;28;20296;-46